Time;durP1;ratioP1;P1;durP2;ratioP2;P2;SDS_P1;SDS_P2;PMS_P1;PMS_P2;Temp;Humidity;BMP_temperature;BMP_pressure;BME280_temperature;BME280_humidity;BME280_pressure;Samples;Min_cycle;Max_cycle;Signal;HPM_P1;HPM_P2
2021/08/09 00:00:28;;;;;;;7.55;2.25;;;;;;;31.36;54.78;100811.38;5118418;27;66322;-29
2021/08/09 00:02:59;;;;;;;8.13;3.08;;;;;;;31.42;56.14;100815.91;5109050;27;69827;-32
2021/08/09 00:05:30;;;;;;;6.82;2.53;;;;;;;31.46;56.00;100819.84;5112428;27;66376;-32
2021/08/09 00:08:00;;;;;;;3.97;2.53;;;;;;;31.52;56.93;100816.22;5112217;27;69877;-32
2021/08/09 00:10:32;;;;;;;9.98;3.05;;;;;;;31.57;56.68;100826.38;5115779;27;66733;-33
2021/08/09 00:13:03;;;;;;;6.80;2.77;;;;;;;31.60;57.74;100834.88;5131209;27;69270;-31
2021/08/09 00:15:34;;;;;;;7.32;2.60;;;;;;;31.61;57.65;100825.69;5112198;27;65591;-31
2021/08/09 00:18:05;;;;;;;7.00;2.70;;;;;;;31.70;57.34;100826.22;5115301;27;69943;-32
2021/08/09 00:20:35;;;;;;;10.30;2.78;;;;;;;31.73;58.46;100819.50;5097639;27;65189;-31
2021/08/09 00:23:07;;;;;;;3.67;2.63;;;;;;;31.77;58.31;100815.28;5095403;27;69822;-31
2021/08/09 00:25:37;;;;;;;4.95;2.42;;;;;;;31.75;58.17;100806.56;5113697;27;65330;-31
2021/08/09 00:28:07;;;;;;;6.43;2.33;;;;;;;31.75;58.96;100811.97;5110805;27;69633;-31
2021/08/09 00:30:38;;;;;;;6.75;2.70;;;;;;;31.84;58.01;100810.59;5112651;27;65977;-31
2021/08/09 00:33:09;;;;;;;3.80;2.35;;;;;;;31.88;58.10;100811.81;5106755;27;69381;-31
2021/08/09 00:35:40;;;;;;;4.85;2.63;;;;;;;31.90;57.85;100809.72;5116255;27;66680;-31
2021/08/09 00:38:10;;;;;;;5.28;2.10;;;;;;;31.92;58.70;100813.03;5107021;27;70122;-32
2021/08/09 00:40:41;;;;;;;7.25;2.40;;;;;;;31.91;59.44;100808.66;5114891;27;65400;-31
2021/08/09 00:43:14;;;;;;;5.35;2.67;;;;;;;31.94;59.16;100821.78;5114652;27;70426;-32
2021/08/09 00:45:46;;;;;;;3.50;2.47;;;;;;;31.92;58.98;100812.22;5110210;27;65412;-31
2021/08/09 00:48:17;;;;;;;7.05;2.42;;;;;;;31.97;59.55;100815.06;5110030;27;68817;-32
2021/08/09 00:50:48;;;;;;;7.28;2.45;;;;;;;32.02;58.20;100813.31;5131355;27;66866;-31
2021/08/09 00:53:19;;;;;;;8.55;2.88;;;;;;;32.05;58.47;100806.59;5104291;27;69818;-31
2021/08/09 00:55:52;;;;;;;;;;;;;;;31.81;60.80;100805.63;5113681;27;66150;-31
2021/08/09 00:58:22;;;;;;;6.50;2.53;;;;;;;32.07;59.08;100809.91;5115901;27;70306;-30
2021/08/09 01:00:53;;;;;;;6.95;2.90;;;;;;;32.15;59.43;100809.59;5113557;27;67686;-31
2021/08/09 01:03:24;;;;;;;11.40;3.03;;;;;;;32.20;58.20;100819.75;5108994;27;70314;-32
2021/08/09 01:05:55;;;;;;;12.05;3.28;;;;;;;32.21;58.58;100827.66;5107552;27;68980;-31
2021/08/09 01:08:41;;;;;;;8.90;2.75;;;;;;;32.26;59.08;100829.66;5107197;27;69956;-30
2021/08/09 01:11:30;;;;;;;4.20;3.03;;;;;;;32.27;59.33;100839.50;5133129;27;66323;-30
2021/08/09 01:14:38;;;;;;;9.90;2.42;;;;;;;32.32;58.87;100838.78;5116993;27;69472;-30
2021/08/09 01:17:10;;;;;;;4.43;2.63;;;;;;;32.36;58.02;100840.81;5116330;27;66144;-30
2021/08/09 01:20:07;;;;;;;6.50;2.53;;;;;;;32.29;58.90;100829.22;5128350;27;69905;-30
2021/08/09 01:22:54;;;;;;;6.13;2.25;;;;;;;32.16;59.44;100802.28;5129195;27;65900;-31
2021/08/09 01:25:31;;;;;;;5.15;2.72;;;;;;;32.40;58.19;100836.59;5113784;27;70556;-30
2021/08/09 01:28:24;;;;;;;4.45;2.00;;;;;;;32.44;58.62;100848.63;5097577;27;65912;-31
2021/08/09 01:31:01;;;;;;;3.83;2.45;;;;;;;32.45;58.46;100833.97;5113826;27;70351;-30
2021/08/09 01:33:41;;;;;;;6.30;2.83;;;;;;;32.30;58.80;100798.31;5081631;27;66000;-30
2021/08/09 01:36:12;;;;;;;3.83;2.65;;;;;;;32.47;58.69;100826.47;5112813;27;69837;-30
2021/08/09 01:38:48;;;;;;;6.07;2.80;;;;;;;32.49;58.94;100820.81;5113205;27;66188;-30
2021/08/09 01:41:19;;;;;;;5.53;2.90;;;;;;;32.54;58.67;100830.97;5101316;27;69590;-30
2021/08/09 01:43:50;;;;;;;6.20;2.60;;;;;;;32.56;58.92;100834.28;5107130;27;65828;-30
2021/08/09 01:46:22;;;;;;;3.67;3.10;;;;;;;32.59;59.08;100833.81;5095234;27;69290;-30
2021/08/09 01:48:55;;;;;;;5.47;2.60;;;;;;;32.61;59.38;100826.25;5102421;27;66412;-31
2021/08/09 01:51:26;;;;;;;4.35;2.83;;;;;;;32.62;59.01;100828.72;5111373;27;70360;-30
2021/08/09 01:53:59;;;;;;;4.28;3.05;;;;;;;32.56;58.72;100828.84;5109078;27;65374;-30
2021/08/09 01:56:33;;;;;;;4.25;2.30;;;;;;;32.39;58.83;100786.03;5108726;27;70636;-30
2021/08/09 01:59:04;;;;;;;3.92;2.60;;;;;;;32.66;59.05;100824.50;5130686;27;65560;-30
2021/08/09 02:01:40;;;;;;;14.05;2.80;;;;;;;32.42;60.00;100779.31;5095359;27;69312;-32
2021/08/09 02:04:15;;;;;;;5.47;2.22;;;;;;;32.53;60.28;100819.28;5114526;27;66524;-31
2021/08/09 02:06:45;;;;;;;6.35;2.38;;;;;;;32.45;61.11;100817.69;5113871;27;69205;-31
2021/08/09 02:09:16;;;;;;;4.15;2.50;;;;;;;32.42;60.93;100807.28;5104215;27;66736;-31
2021/08/09 02:12:07;;;;;;;3.75;2.28;;;;;;;32.26;61.28;100797.09;5125850;27;69936;-30
2021/08/09 02:14:52;;;;;;;5.07;2.30;;;;;;;32.32;61.17;100801.63;5107900;27;65446;-30
2021/08/09 02:17:38;;;;;;;2.80;2.10;;;;;;;32.25;61.30;100781.88;5114829;27;69563;-30
2021/08/09 02:20:19;;;;;;;4.18;2.00;;;;;;;32.32;61.20;100796.19;5116263;27;66756;-30
2021/08/09 02:23:09;;;;;;;4.13;1.85;;;;;;;32.28;61.28;100789.56;5115806;27;70306;-30
2021/08/09 02:25:45;;;;;;;3.00;2.10;;;;;;;32.32;61.67;100798.06;5110472;27;66413;-31
2021/08/09 02:28:26;;;;;;;2.92;2.00;;;;;;;32.30;61.47;100795.59;5103268;27;70241;-29
2021/08/09 02:31:05;;;;;;;9.05;3.30;;;;;;;32.32;61.96;100796.19;5108636;27;65147;-29
2021/08/09 02:33:38;;;;;;;5.55;2.92;;;;;;;32.30;62.01;100792.88;5107397;27;70125;-29
2021/08/09 02:36:11;;;;;;;13.88;3.03;;;;;;;31.86;62.23;100710.84;5103554;27;64977;-30
2021/08/09 02:38:43;;;;;;;7.07;3.13;;;;;;;32.23;62.65;100770.44;5086022;27;71083;-30
2021/08/09 02:41:14;;;;;;;10.55;2.70;;;;;;;32.34;62.25;100777.78;5107077;27;65617;-31
2021/08/09 02:43:48;;;;;;;3.75;2.80;;;;;;;32.20;61.77;100760.03;5092239;27;69781;-30
2021/08/09 02:46:19;;;;;;;8.10;3.10;;;;;;;32.36;61.63;100780.25;5106953;27;66383;-32
2021/08/09 02:48:52;;;;;;;8.20;2.72;;;;;;;32.36;62.48;100781.09;5109828;27;70478;-34
2021/08/09 02:51:44;;;;;;;4.75;2.45;;;;;;;32.35;62.43;100778.63;5102089;27;66788;-35
2021/08/09 02:54:20;;;;;;;5.63;2.60;;;;;;;32.39;63.15;100790.66;5129499;27;69969;-32
2021/08/09 02:56:52;;;;;;;5.38;2.85;;;;;;;32.39;62.52;100780.63;5109469;27;66218;-31
2021/08/09 02:59:23;;;;;;;6.10;2.88;;;;;;;32.37;62.68;100771.88;5106013;27;70069;-36
2021/08/09 03:01:54;;;;;;;4.63;2.80;;;;;;;32.40;63.13;100779.56;5079772;27;66941;-32
2021/08/09 03:04:30;;;;;;;6.07;2.22;;;;;;;32.42;62.64;100761.13;5112093;27;70395;-34
2021/08/09 03:07:05;;;;;;;11.95;2.83;;;;;;;32.47;62.54;100766.72;5098614;27;65545;-31
2021/08/09 03:09:37;;;;;;;8.30;2.30;;;;;;;32.47;62.16;100765.91;5110996;27;69001;-33
2021/08/09 03:12:08;;;;;;;;;;;;;;;32.27;63.25;100768.91;5081698;27;65446;-33
2021/08/09 03:14:40;;;;;;;6.78;2.60;;;;;;;32.48;62.38;100757.53;5114239;27;70520;-35
2021/08/09 03:17:15;;;;;;;7.43;2.88;;;;;;;32.55;62.41;100760.13;5108260;27;65612;-32
2021/08/09 03:19:46;;;;;;;12.05;3.15;;;;;;;32.52;61.98;100746.22;5109493;27;70117;-34
2021/08/09 03:22:17;;;;;;;7.50;2.90;;;;;;;32.56;61.99;100752.81;5114054;27;67203;-33
2021/08/09 03:24:49;;;;;;;;;;;;;;;32.37;62.74;100757.47;5106719;27;70181;-34
2021/08/09 03:27:20;;;;;;;5.40;2.75;;;;;;;32.57;61.98;100746.31;5114655;27;65765;-33
2021/08/09 03:29:52;;;;;;;11.82;2.65;;;;;;;32.60;62.57;100748.59;5110140;27;69915;-32
2021/08/09 03:32:23;;;;;;;9.13;2.22;;;;;;;32.64;62.23;100745.13;5114482;27;66260;-33
2021/08/09 03:34:56;;;;;;;3.10;1.98;;;;;;;32.67;62.12;100743.84;5105805;27;69795;-34
2021/08/09 03:37:28;;;;;;;5.85;2.15;;;;;;;32.68;61.80;100745.50;5076410;27;66055;-31
2021/08/09 03:39:59;;;;;;;4.35;1.60;;;;;;;32.66;61.92;100739.50;5108512;27;69421;-33
2021/08/09 03:42:32;;;;;;;2.08;1.70;;;;;;;32.68;61.74;100729.19;5109079;27;65332;-32
2021/08/09 03:45:05;;;;;;;2.78;1.50;;;;;;;32.71;61.42;100720.59;5127455;27;69186;-32
2021/08/09 03:47:36;;;;;;;2.58;1.67;;;;;;;32.71;61.30;100701.59;5103598;27;66204;-32
2021/08/09 03:50:10;;;;;;;3.80;1.45;;;;;;;32.81;61.69;100709.13;5126527;27;69879;-32
2021/08/09 03:53:01;;;;;;;5.78;1.75;;;;;;;32.85;60.35;100703.00;5073317;27;65647;-34
2021/08/09 03:55:35;;;;;;;6.65;1.70;;;;;;;32.98;60.52;100701.88;5102246;27;69712;-31
2021/08/09 03:58:09;;;;;;;3.08;1.63;;;;;;;33.12;60.12;100697.03;5109174;27;66108;-36
2021/08/09 04:00:40;;;;;;;3.05;1.85;;;;;;;33.24;59.36;100694.28;5109644;27;70235;-36
2021/08/09 04:03:11;;;;;;;4.07;1.65;;;;;;;33.27;58.73;100683.78;5093484;27;66232;-34
2021/08/09 04:05:42;;;;;;;2.80;1.60;;;;;;;33.41;59.04;100683.50;5106591;27;69515;-31
2021/08/09 04:08:14;;;;;;;3.20;1.75;;;;;;;33.48;58.71;100687.72;5108234;27;66212;-32
2021/08/09 04:10:50;;;;;;;5.45;2.05;;;;;;;33.56;58.33;100681.09;5106897;27;70013;-31
2021/08/09 04:13:21;;;;;;;4.90;1.67;;;;;;;33.62;58.56;100674.66;5101865;27;65715;-31
2021/08/09 04:15:54;;;;;;;3.85;2.20;;;;;;;33.64;58.02;100656.22;5106265;27;70356;-37
2021/08/09 04:18:28;;;;;;;2.88;1.50;;;;;;;33.71;57.91;100662.34;5088368;27;66211;-32
2021/08/09 04:20:59;;;;;;;2.75;1.55;;;;;;;33.78;57.54;100665.72;5111672;27;69685;-34
2021/08/09 04:23:30;;;;;;;5.60;1.85;;;;;;;33.83;57.49;100658.72;5091689;27;67125;-34
2021/08/09 04:26:01;;;;;;;3.07;1.50;;;;;;;33.89;57.24;100657.75;5078855;27;68976;-31
2021/08/09 04:28:36;;;;;;;2.95;1.52;;;;;;;33.93;57.22;100648.00;5097877;27;66293;-33
2021/08/09 04:31:07;;;;;;;4.57;2.10;;;;;;;33.97;57.31;100652.72;5114215;27;69114;-33
2021/08/09 04:33:58;;;;;;;6.53;2.20;;;;;;;34.02;56.96;100646.53;5097117;27;66623;-32
2021/08/09 04:36:29;;;;;;;1.97;1.30;;;;;;;34.04;56.46;100644.38;5112680;27;71312;-32
2021/08/09 04:39:02;;;;;;;4.07;1.67;;;;;;;34.09;56.72;100641.78;5098315;27;66295;-31
2021/08/09 04:41:33;;;;;;;2.15;1.55;;;;;;;34.14;56.49;100644.56;5092168;27;70276;-33
2021/08/09 04:44:17;;;;;;;2.80;1.42;;;;;;;34.17;56.65;100641.34;5108095;27;66223;-32
2021/08/09 04:46:47;;;;;;;3.50;1.45;;;;;;;34.20;56.46;100640.84;5095688;27;70278;-32
2021/08/09 04:49:20;;;;;;;2.80;1.55;;;;;;;34.24;56.61;100636.56;5110629;27;66301;-31
2021/08/09 04:52:10;;;;;;;2.70;1.35;;;;;;;34.24;56.27;100628.41;5115077;27;70267;-32
2021/08/09 04:54:41;;;;;;;3.15;2.13;;;;;;;34.25;55.84;100621.88;5108331;27;65420;-32
2021/08/09 04:57:13;;;;;;;7.75;2.30;;;;;;;34.26;55.53;100617.25;5093115;27;69481;-31
2021/08/09 04:59:45;;;;;;;3.40;2.40;;;;;;;34.32;55.77;100618.16;5107474;27;66891;-32
2021/08/09 05:02:16;;;;;;;11.98;2.25;;;;;;;34.31;55.50;100609.16;5099984;27;70421;-31
2021/08/09 05:04:47;;;;;;;2.85;2.13;;;;;;;34.37;55.66;100604.63;5110749;27;65830;-37
2021/08/09 05:07:18;;;;;;;3.50;2.70;;;;;;;34.36;55.67;100598.34;5091053;27;69945;-33
2021/08/09 05:09:49;;;;;;;4.88;2.60;;;;;;;34.39;55.41;100597.03;5091467;27;66285;-34
2021/08/09 05:12:46;;;;;;;18.60;3.00;;;;;;;34.37;54.25;100594.53;5101757;27;69267;-31
2021/08/09 05:15:21;;;;;;;22.05;2.75;;;;;;;34.33;53.66;100589.88;5106834;27;65460;-33
2021/08/09 05:17:53;;;;;;;16.73;2.47;;;;;;;34.13;53.47;100571.31;5106788;27;70344;-30
2021/08/09 05:20:23;;;;;;;10.93;2.25;;;;;;;33.95;52.57;100586.00;5130647;27;66474;-31
2021/08/09 05:22:54;;;;;;;10.98;1.85;;;;;;;33.76;51.73;100567.19;5110988;27;70267;-33
2021/08/09 05:25:24;;;;;;;5.85;2.08;;;;;;;33.61;51.67;100568.88;5093810;27;65363;-30
2021/08/09 05:27:55;;;;;;;11.82;1.83;;;;;;;33.43;50.64;100561.72;5108592;27;69459;-31
2021/08/09 05:30:26;;;;;;;7.10;1.50;;;;;;;33.32;50.53;100550.69;5111308;27;66812;-31
2021/08/09 05:32:56;;;;;;;10.73;1.50;;;;;;;33.18;49.58;100538.44;5109210;27;71058;-31
2021/08/09 05:35:27;;;;;;;6.53;1.52;;;;;;;33.10;49.72;100547.00;5111535;27;65324;-30
2021/08/09 05:37:59;;;;;;;;;;;;;;;32.72;48.21;100545.69;5114070;27;70966;-37
2021/08/09 05:40:30;;;;;;;5.65;0.85;;;;;;;32.80;48.91;100523.59;5091215;27;66208;-32
2021/08/09 05:43:04;;;;;;;4.95;1.10;;;;;;;32.86;48.31;100536.19;5110246;27;70466;-33
2021/08/09 05:45:35;;;;;;;3.17;0.93;;;;;;;32.85;48.39;100531.03;5095055;27;65289;-33
2021/08/09 05:48:07;;;;;;;1.92;0.95;;;;;;;32.78;47.45;100520.28;5106237;27;69252;-30
2021/08/09 05:50:41;;;;;;;2.15;0.70;;;;;;;32.72;47.15;100515.81;5089538;27;65441;-31
2021/08/09 05:53:13;;;;;;;1.13;0.70;;;;;;;32.70;46.33;100509.78;5084408;27;69922;-34
2021/08/09 05:55:44;;;;;;;2.63;0.73;;;;;;;32.67;46.26;100510.28;5093008;27;65216;-32
2021/08/09 05:58:16;;;;;;;1.15;0.70;;;;;;;32.64;45.67;100514.31;5123992;27;70261;-32
2021/08/09 06:00:51;;;;;;;0.90;0.60;;;;;;;32.63;46.27;100509.13;5105850;27;65561;-31
2021/08/09 06:03:24;;;;;;;1.35;0.60;;;;;;;32.57;45.07;100500.06;5126799;27;70479;-30
2021/08/09 06:05:59;;;;;;;1.45;0.60;;;;;;;32.57;45.81;100493.78;5095096;27;66198;-33
2021/08/09 06:08:37;;;;;;;1.65;0.70;;;;;;;32.54;44.39;100484.25;5113637;27;69830;-32
2021/08/09 06:11:09;;;;;;;1.00;0.63;;;;;;;32.55;44.91;100474.22;5082490;27;67500;-32
2021/08/09 06:13:40;;;;;;;2.05;0.55;;;;;;;32.54;44.53;100472.53;5090895;27;70002;-30
2021/08/09 06:16:11;;;;;;;2.50;0.50;;;;;;;32.41;44.95;100447.31;5103512;27;65518;-32
2021/08/09 06:18:45;;;;;;;0.60;0.43;;;;;;;32.56;44.58;100473.13;5089659;27;69922;-31
2021/08/09 06:21:16;;;;;;;1.05;0.47;;;;;;;32.53;44.72;100471.72;5112262;27;65710;-31
2021/08/09 06:23:48;;;;;;;1.53;0.43;;;;;;;32.54;43.81;100456.25;5093998;27;69447;-33
2021/08/09 06:26:23;;;;;;;1.48;0.60;;;;;;;32.57;44.11;100462.03;5105822;27;66406;-31
2021/08/09 06:28:58;;;;;;;2.33;0.30;;;;;;;32.56;43.38;100454.94;5091648;27;69476;-31
2021/08/09 06:31:33;;;;;;;3.22;0.60;;;;;;;32.55;43.65;100447.06;5110220;27;66330;-31
2021/08/09 06:34:07;;;;;;;1.20;0.40;;;;;;;32.55;43.26;100452.50;5106278;27;69993;-30
2021/08/09 06:36:39;;;;;;;1.05;0.52;;;;;;;32.56;43.67;100454.13;5105382;27;66352;-30
2021/08/09 06:39:11;;;;;;;3.13;0.50;;;;;;;32.56;43.20;100448.69;5101980;27;69638;-32
2021/08/09 06:41:41;;;;;;;0.80;0.50;;;;;;;32.56;43.12;100448.69;5109343;27;66082;-32
2021/08/09 06:44:36;;;;;;;3.45;0.45;;;;;;;32.52;43.02;100439.41;5113131;27;68620;-30
2021/08/09 06:47:07;;;;;;;0.40;0.40;;;;;;;32.51;43.12;100429.59;5093866;27;65265;-32
2021/08/09 06:49:40;;;;;;;0.75;0.40;;;;;;;32.39;42.07;100406.00;5108914;27;69400;-33
2021/08/09 06:52:11;;;;;;;1.10;0.60;;;;;;;32.58;42.42;100435.72;5111605;27;65494;-32
2021/08/09 06:54:42;;;;;;;0.63;0.35;;;;;;;32.62;42.29;100428.72;5091967;27;70452;-32
2021/08/09 06:57:18;;;;;;;1.75;0.60;;;;;;;32.64;41.84;100419.25;5109802;27;65710;-31
2021/08/09 06:59:48;;;;;;;0.43;0.30;;;;;;;32.62;41.75;100409.69;5109123;27;69365;-30
2021/08/09 07:02:24;;;;;;;0.70;0.60;;;;;;;32.70;42.60;100414.75;5112217;27;66160;-31
2021/08/09 07:04:55;;;;;;;4.85;0.82;;;;;;;32.71;44.23;100414.50;5110490;27;70238;-30
2021/08/09 07:07:32;;;;;;;0.80;0.47;;;;;;;32.78;43.87;100408.09;5112137;27;66309;-32
2021/08/09 07:10:07;;;;;;;1.05;0.52;;;;;;;32.82;42.94;100393.78;5106046;27;69261;-34
2021/08/09 07:12:42;;;;;;;1.35;0.85;;;;;;;32.82;42.77;100404.66;5110387;27;66328;-31
2021/08/09 07:15:13;;;;;;;4.50;0.80;;;;;;;32.83;42.79;100395.44;5114414;27;70088;-34
2021/08/09 07:17:46;;;;;;;9.85;0.85;;;;;;;32.86;44.09;100392.22;5113377;27;66687;-32
2021/08/09 07:20:24;;;;;;;0.93;0.65;;;;;;;32.91;43.73;100400.47;5109069;27;69944;-31
2021/08/09 07:23:01;;;;;;;2.47;0.90;;;;;;;32.96;45.16;100393.44;5112245;27;64974;-31
2021/08/09 07:25:34;;;;;;;1.58;0.90;;;;;;;33.05;47.75;100392.03;5111567;27;69448;-31
2021/08/09 07:28:06;;;;;;;3.13;1.33;;;;;;;33.17;48.74;100398.19;5109327;27;65671;-34
2021/08/09 07:30:38;;;;;;;2.22;1.30;;;;;;;33.27;49.90;100398.34;5105377;27;70308;-31
2021/08/09 07:33:09;;;;;;;3.13;1.20;;;;;;;33.42;50.40;100395.03;5087261;27;66330;-31
2021/08/09 07:35:43;;;;;;;6.88;1.40;;;;;;;33.54;50.13;100384.09;5109801;27;70399;-33
2021/08/09 07:38:14;;;;;;;5.85;1.30;;;;;;;33.51;51.11;100362.81;5105818;27;66189;-30
2021/08/09 07:40:45;;;;;;;5.68;1.20;;;;;;;33.73;51.73;100382.72;5110798;27;70585;-32
2021/08/09 07:43:16;;;;;;;2.25;1.30;;;;;;;33.81;51.37;100374.13;5091735;27;66341;-31
2021/08/09 07:45:47;;;;;;;12.55;1.48;;;;;;;33.90;51.92;100370.97;5088847;27;69721;-31
2021/08/09 07:48:18;;;;;;;3.53;1.63;;;;;;;33.95;52.44;100363.69;5109598;27;66301;-31
2021/08/09 07:50:52;;;;;;;3.42;1.42;;;;;;;34.05;52.02;100357.59;5111404;27;69514;-32
2021/08/09 07:53:25;;;;;;;4.75;1.50;;;;;;;34.13;51.63;100348.13;5107906;27;66360;-31
2021/08/09 07:56:18;;;;;;;3.30;1.52;;;;;;;34.33;51.58;100353.00;5076503;27;69841;-31
2021/08/09 07:59:06;;;;;;;4.95;1.60;;;;;;;34.47;50.73;100348.78;5088277;27;66148;-31
2021/08/09 08:01:39;;;;;;;2.75;1.33;;;;;;;34.58;50.88;100350.53;5069623;27;70180;-30
2021/08/09 08:04:10;;;;;;;8.13;1.40;;;;;;;34.69;50.55;100338.66;5088801;27;66173;-30
2021/08/09 08:07:12;;;;;;;9.37;1.90;;;;;;;34.71;50.66;100343.81;5090724;27;69551;-32
2021/08/09 08:09:50;;;;;;;4.90;1.42;;;;;;;34.89;50.41;100339.91;5047605;27;66533;-36
2021/08/09 08:12:21;;;;;;;;;;;;;;;34.70;51.37;100345.72;5068725;27;69499;-33
2021/08/09 08:14:53;;;;;;;2.25;1.70;;;;;;;34.98;50.69;100349.22;5076122;27;66526;-30
2021/08/09 08:17:24;;;;;;;4.15;1.70;;;;;;;35.04;50.80;100342.72;5087499;27;69948;-31
2021/08/09 08:19:56;;;;;;;3.75;1.90;;;;;;;35.13;50.20;100346.66;5071381;27;65548;-34
2021/08/09 08:22:26;;;;;;;3.00;1.80;;;;;;;35.14;49.82;100326.47;5089238;27;70160;-32
2021/08/09 08:25:02;;;;;;;4.75;1.90;;;;;;;35.22;49.72;100332.53;5073939;27;43671;-31
2021/08/09 08:27:35;;;;;;;3.83;2.13;;;;;;;35.20;50.94;100329.25;5059477;27;70413;-33
2021/08/09 08:30:08;;;;;;;7.47;2.00;;;;;;;35.13;51.24;100335.75;5073741;27;66343;-33
2021/08/09 08:33:02;;;;;;;6.88;2.03;;;;;;;35.04;51.70;100320.91;5089352;27;69430;-32
2021/08/09 08:35:35;;;;;;;14.27;2.58;;;;;;;35.04;52.09;100331.81;5108796;27;65936;-32
2021/08/09 08:38:05;;;;;;;4.18;1.80;;;;;;;35.02;52.78;100334.00;5095156;27;69431;-30
2021/08/09 08:40:50;;;;;;;7.50;2.50;;;;;;;35.02;53.32;100338.63;5104886;27;66207;-32
2021/08/09 08:43:28;;;;;;;3.40;2.10;;;;;;;35.03;53.00;100334.81;5106791;27;69201;-33
2021/08/09 08:46:05;;;;;;;7.95;2.20;;;;;;;34.99;52.97;100328.25;5106772;27;65511;-32
2021/08/09 08:48:40;;;;;;;3.53;1.80;;;;;;;35.02;53.20;100328.56;5092838;27;70082;-35
2021/08/09 08:51:24;;;;;;;7.72;2.50;;;;;;;35.02;53.22;100325.84;5108598;27;66453;-36
2021/08/09 08:54:02;;;;;;;2.85;1.90;;;;;;;34.99;53.69;100318.16;5097461;27;69974;-31
2021/08/09 08:56:36;;;;;;;6.35;2.80;;;;;;;35.05;54.13;100327.19;5093534;27;66000;-33
2021/08/09 08:59:13;;;;;;;13.02;2.25;;;;;;;35.05;53.77;100310.84;5103986;27;71517;-39
2021/08/09 09:01:46;;;;;;;10.68;2.42;;;;;;;35.06;54.16;100317.97;5102857;27;66250;-34
2021/08/09 09:04:23;;;;;;;3.05;1.88;;;;;;;35.07;54.45;100309.53;5104148;27;70158;-33
2021/08/09 09:07:00;;;;;;;4.80;2.03;;;;;;;35.10;54.39;100306.31;5111067;27;66457;-34
2021/08/09 09:09:39;;;;;;;5.60;2.05;;;;;;;35.07;54.60;100290.44;5103795;27;69423;-33
2021/08/09 09:12:18;;;;;;;2.75;2.00;;;;;;;34.91;54.24;100262.25;5106920;27;66403;-33
2021/08/09 09:15:07;;;;;;;12.10;2.40;;;;;;;35.02;54.52;100290.41;5111425;27;69487;-33
2021/08/09 09:17:40;;;;;;;2.22;2.03;;;;;;;35.16;54.38;100300.84;5110442;27;65530;-31
2021/08/09 09:20:27;;;;;;;9.30;1.92;;;;;;;34.89;54.72;100269.88;5110193;27;69235;-30
2021/08/09 09:23:17;;;;;;;13.63;2.25;;;;;;;35.09;54.47;100318.25;5113487;27;65420;-35
2021/08/09 09:25:51;;;;;;;6.13;1.95;;;;;;;35.16;53.65;100300.84;5108023;27;69397;-31
2021/08/09 09:28:35;;;;;;;37.40;2.90;;;;;;;34.96;54.67;100263.34;5113047;27;66253;-32
2021/08/09 09:31:13;;;;;;;13.35;2.03;;;;;;;35.17;53.68;100297.88;5111035;27;69941;-31
2021/08/09 09:33:47;;;;;;;6.32;2.13;;;;;;;35.14;52.80;100293.78;5107723;27;66114;-30
2021/08/09 09:36:22;;;;;;;4.38;1.90;;;;;;;35.16;52.17;100306.31;5111191;27;70326;-33
2021/08/09 09:38:57;;;;;;;8.38;2.00;;;;;;;35.13;51.89;100307.66;5110967;27;66522;-31
2021/08/09 09:41:52;;;;;;;5.10;2.00;;;;;;;35.10;51.19;100298.13;5104284;27;69709;-32
2021/08/09 09:44:29;;;;;;;6.57;2.28;;;;;;;35.10;51.57;100297.28;5105851;27;66350;-33
2021/08/09 09:47:23;;;;;;;3.60;2.08;;;;;;;35.02;51.90;100308.63;5105311;27;70311;-34
2021/08/09 09:50:00;;;;;;;4.65;2.17;;;;;;;35.04;51.79;100296.38;5107762;27;66114;-33
2021/08/09 09:52:47;;;;;;;3.47;2.13;;;;;;;35.06;51.99;100299.72;5106782;27;70264;-33
2021/08/09 09:55:18;;;;;;;7.40;2.60;;;;;;;35.06;52.25;100307.91;5106909;27;66449;-38
2021/08/09 09:57:49;;;;;;;6.40;2.95;;;;;;;35.05;52.66;100310.84;5106309;27;70220;-31
2021/08/09 10:00:20;;;;;;;4.05;3.10;;;;;;;34.92;52.76;100295.78;5107755;27;66521;-32
2021/08/09 10:02:51;;;;;;;4.35;2.58;;;;;;;35.02;52.80;100317.66;5105244;27;70359;-31
2021/08/09 10:05:41;;;;;;;5.75;3.03;;;;;;;34.99;52.63;100317.34;5095061;27;66066;-33
2021/08/09 10:08:16;;;;;;;7.05;2.47;;;;;;;35.02;52.35;100323.13;5107873;27;70189;-31
2021/08/09 10:10:49;;;;;;;3.25;2.28;;;;;;;34.87;52.49;100304.72;5110790;27;65462;-30
2021/08/09 10:13:21;;;;;;;3.40;3.08;;;;;;;35.01;52.98;100329.63;5107869;27;70549;-32
2021/08/09 10:15:59;;;;;;;3.40;3.10;;;;;;;34.82;52.95;100306.59;5113532;27;66307;-31
2021/08/09 10:18:40;;;;;;;4.68;4.00;;;;;;;35.03;53.39;100335.66;5110605;27;69536;-32
2021/08/09 10:21:11;;;;;;;5.97;4.35;;;;;;;35.04;53.96;100334.56;5106530;27;66356;-31
2021/08/09 10:23:44;;;;;;;9.30;5.30;;;;;;;35.01;54.60;100335.06;5106362;27;70407;-31
2021/08/09 10:26:30;;;;;;;10.32;5.35;;;;;;;35.03;54.46;100341.09;5113999;27;66061;-35
2021/08/09 10:29:12;;;;;;;21.02;5.57;;;;;;;35.00;54.73;100352.53;5101539;27;70517;-32
2021/08/09 10:31:52;;;;;;;6.25;5.65;;;;;;;34.95;54.86;100348.94;5111202;27;66403;-33
2021/08/09 10:34:39;;;;;;;14.35;6.15;;;;;;;34.93;54.51;100351.91;5113482;27;69918;-31
2021/08/09 10:37:22;;;;;;;6.95;6.25;;;;;;;34.70;54.40;100315.78;5114773;27;66103;-32
2021/08/09 10:40:03;;;;;;;10.27;6.25;;;;;;;34.92;54.02;100355.72;5132188;27;69496;-31
2021/08/09 10:42:37;;;;;;;6.63;6.00;;;;;;;34.83;54.14;100346.41;5111826;27;65553;-32
2021/08/09 10:45:09;;;;;;;7.72;7.10;;;;;;;34.87;54.43;100359.22;5110332;27;69960;-30
2021/08/09 10:47:45;;;;;;;;;;;;;;;34.69;54.55;100357.72;5115342;27;66482;-32
2021/08/09 10:50:46;;;;;;;11.05;6.43;;;;;;;34.82;54.12;100366.53;5115094;27;69497;-31
2021/08/09 10:53:27;;;;;;;10.75;7.22;;;;;;;34.83;54.58;100373.66;5128952;27;65547;-31
2021/08/09 10:55:59;;;;;;;10.75;7.60;;;;;;;34.81;54.50;100375.81;5115152;27;69656;-31
2021/08/09 10:58:42;;;;;;;9.15;8.13;;;;;;;34.79;54.55;100389.66;5112995;27;66120;-32
2021/08/09 11:01:15;;;;;;;14.45;7.32;;;;;;;34.78;55.02;100396.22;5089324;27;70354;-33
2021/08/09 11:04:06;;;;;;;11.98;6.60;;;;;;;34.74;55.39;100391.53;5114063;27;65642;-32
2021/08/09 11:06:52;;;;;;;10.10;6.80;;;;;;;34.67;55.18;100403.47;5112690;27;70032;-33
2021/08/09 11:09:35;;;;;;;13.18;6.90;;;;;;;34.51;53.51;100419.88;5109374;27;66456;-32
2021/08/09 11:12:15;;;;;;;17.23;6.40;;;;;;;34.37;52.33;100414.81;5112734;27;70303;-36
2021/08/09 11:15:02;;;;;;;13.05;6.93;;;;;;;34.15;51.38;100423.00;5100759;27;66173;-36
2021/08/09 11:17:45;;;;;;;22.77;6.15;;;;;;;34.00;51.33;100426.34;5111484;27;69586;-30
2021/08/09 11:20:20;;;;;;;19.65;6.93;;;;;;;33.96;51.38;100438.81;5112876;27;65659;-31
2021/08/09 11:23:07;;;;;;;13.07;6.50;;;;;;;33.71;49.95;100442.00;5106124;27;70437;-31
2021/08/09 11:25:39;;;;;;;10.95;6.80;;;;;;;33.71;50.27;100444.72;5109969;27;65176;-34
2021/08/09 11:28:15;;;;;;;14.43;5.97;;;;;;;33.65;49.41;100450.31;5111944;27;69960;-30
2021/08/09 11:31:11;;;;;;;14.93;6.38;;;;;;;33.36;47.87;100442.25;5112147;27;65910;-30
2021/08/09 11:33:42;;;;;;;11.52;6.32;;;;;;;33.36;49.38;100443.06;5112981;27;69257;-31
2021/08/09 11:36:15;;;;;;;;;;;;;;;32.94;49.92;100451.59;5108411;27;65337;-34
2021/08/09 11:38:49;;;;;;;29.70;5.97;;;;;;;33.30;51.11;100459.56;5111192;27;69285;-32
2021/08/09 11:41:30;;;;;;;15.77;6.03;;;;;;;33.29;51.17;100456.03;5109255;27;66637;-33
2021/08/09 11:44:07;;;;;;;25.77;6.90;;;;;;;33.15;51.27;100416.63;5112251;27;70161;-33
2021/08/09 11:46:50;;;;;;;27.05;6.70;;;;;;;33.17;50.78;100438.13;5112797;27;66260;-31
2021/08/09 11:49:21;;;;;;;27.20;6.57;;;;;;;33.40;50.23;100465.16;5109649;27;69953;-31
2021/08/09 11:51:58;;;;;;;15.63;6.53;;;;;;;33.37;49.75;100454.75;5115024;27;65476;-31
2021/08/09 11:54:40;;;;;;;18.70;6.28;;;;;;;33.31;49.06;100461.19;5110187;27;70013;-31
2021/08/09 11:57:10;;;;;;;20.50;6.28;;;;;;;33.36;48.82;100469.44;5106653;27;66142;-32
2021/08/09 11:59:51;;;;;;;21.10;6.80;;;;;;;33.36;48.36;100459.38;5109149;27;70304;-33
2021/08/09 12:02:21;;;;;;;17.73;5.55;;;;;;;33.30;48.21;100457.66;5115192;27;65512;-31